Time;durP1;ratioP1;P1;durP2;ratioP2;P2;SDS_P1;SDS_P2;PMS_P1;PMS_P2;Temp;Humidity;BMP_temperature;BMP_pressure;BME280_temperature;BME280_humidity;BME280_pressure;Samples;Min_cycle;Max_cycle;Signal;HPM_P1;HPM_P2
2023/07/15 00:00:27;;;;;;;5.13;1.60;;;;;;;18.53;80.98;100070.09;5166917;28;20494;-74
2023/07/15 00:02:57;;;;;;;3.42;1.63;;;;;;;18.45;81.51;100060.06;5178598;28;20037;-75
2023/07/15 00:05:35;;;;;;;6.82;2.10;;;;;;;18.47;81.72;100073.16;5166615;28;20030;-75
2023/07/15 00:08:05;;;;;;;5.03;1.70;;;;;;;18.43;80.89;100066.44;5151052;28;20129;-74
2023/07/15 00:10:39;;;;;;;4.22;1.45;;;;;;;18.47;80.75;100057.28;5153110;28;20125;-75
2023/07/15 00:13:12;;;;;;;4.57;1.63;;;;;;;18.56;79.73;100059.25;5162512;28;20053;-74
2023/07/15 00:15:47;;;;;;;5.65;2.10;;;;;;;18.40;80.98;100058.72;5157622;28;20022;-74
2023/07/15 00:18:17;;;;;;;4.80;1.95;;;;;;;18.45;80.55;100054.78;5165752;28;20059;-75
2023/07/15 00:20:48;;;;;;;5.32;1.65;;;;;;;18.29;81.67;100045.47;5161624;28;20575;-72
2023/07/15 00:23:25;;;;;;;2.47;1.40;;;;;;;18.39;80.98;100046.47;5159571;28;20024;-75
2023/07/15 00:25:55;;;;;;;6.63;1.63;;;;;;;18.40;80.30;100049.00;5149125;28;20034;-74
2023/07/15 00:28:26;;;;;;;3.75;1.70;;;;;;;18.28;81.64;100049.06;5174012;28;20028;-74
2023/07/15 00:30:56;;;;;;;4.50;2.20;;;;;;;18.35;81.22;100043.19;5162975;28;20038;-75
2023/07/15 00:33:28;;;;;;;4.75;1.60;;;;;;;18.19;81.87;100036.50;5172178;28;20027;-74
2023/07/15 00:35:58;;;;;;;3.25;1.40;;;;;;;18.30;80.29;100036.56;5150034;28;20616;-73
2023/07/15 00:38:28;;;;;;;4.35;1.63;;;;;;;18.24;81.73;100035.22;5151750;28;20035;-74
2023/07/15 00:40:59;;;;;;;3.83;1.65;;;;;;;18.40;79.83;100034.91;5157458;28;20038;-71
2023/07/15 00:47:00;;;;;;;4.97;2.05;;;;;;;18.20;81.88;100028.44;5168080;28;20026;-72
2023/07/15 00:49:34;;;;;;;3.90;1.70;;;;;;;18.18;82.35;100030.38;5157248;28;20421;-74
2023/07/15 00:52:19;;;;;;;5.35;1.80;;;;;;;18.21;81.16;100019.53;5160513;28;20387;-75
2023/07/15 00:54:52;;;;;;;5.18;1.75;;;;;;;18.18;81.13;100024.25;5155421;28;20017;-75
2023/07/15 00:57:23;;;;;;;3.83;1.80;;;;;;;18.03;82.49;100020.09;5171687;28;20023;-74
2023/07/15 00:59:58;;;;;;;4.07;1.45;;;;;;;18.05;81.79;100011.09;5164318;28;20079;-75
2023/07/15 01:02:29;;;;;;;7.07;1.98;;;;;;;17.99;82.08;100013.38;5173971;28;20031;-72
2023/07/15 01:04:59;;;;;;;7.25;1.70;;;;;;;17.90;83.02;100008.75;5166192;28;20113;-75
2023/07/15 01:07:30;;;;;;;5.63;1.55;;;;;;;18.15;81.17;100011.25;5175631;28;20136;-75
2023/07/15 01:10:00;;;;;;;3.83;1.60;;;;;;;18.03;82.06;100007.69;5151643;28;20072;-72
2023/07/15 01:12:30;;;;;;;6.28;1.60;;;;;;;18.12;81.85;100000.88;5156494;28;20511;-73
2023/07/15 01:15:01;;;;;;;8.05;1.95;;;;;;;18.10;81.36;100002.81;5176216;28;20064;-72
2023/07/15 01:17:32;;;;;;;5.10;1.67;;;;;;;18.04;81.67;99995.34;5159644;28;21146;-75
2023/07/15 01:20:05;;;;;;;3.70;1.52;;;;;;;18.07;80.67;100003.03;5164735;28;20056;-73
2023/07/15 01:22:36;;;;;;;6.20;2.28;;;;;;;18.19;80.80;100004.75;5175216;28;20041;-75
2023/07/15 01:25:07;;;;;;;4.88;1.70;;;;;;;18.26;79.78;100001.53;5162705;28;20026;-75
2023/07/15 01:27:37;;;;;;;4.00;1.52;;;;;;;18.26;79.83;100003.34;5175028;28;20031;-75
2023/07/15 01:30:09;;;;;;;3.25;1.60;;;;;;;18.26;79.94;100000.69;5161476;28;20033;-75
2023/07/15 01:32:39;;;;;;;6.40;1.90;;;;;;;18.22;79.74;99996.59;5144337;28;20042;-75
2023/07/15 01:35:09;;;;;;;4.88;1.90;;;;;;;18.24;80.07;99989.38;5166006;28;20025;-75
2023/07/15 01:37:40;;;;;;;3.55;1.70;;;;;;;18.27;79.37;99991.78;5173354;28;20038;-75
2023/07/15 01:40:10;;;;;;;3.88;1.63;;;;;;;18.13;80.91;99984.06;5164229;28;20130;-75
2023/07/15 01:42:41;;;;;;;10.73;1.85;;;;;;;18.02;81.70;99979.56;5173561;28;20403;-75
2023/07/15 01:45:11;;;;;;;4.38;1.45;;;;;;;18.26;80.07;99979.53;5169711;28;20487;-75
2023/07/15 01:47:42;;;;;;;3.75;1.70;;;;;;;17.98;81.75;99969.38;5172150;28;20116;-75
2023/07/15 01:50:12;;;;;;;7.40;1.85;;;;;;;18.09;80.37;99978.16;5182208;28;20238;-75
2023/07/15 01:52:42;;;;;;;4.10;1.63;;;;;;;18.09;81.74;99975.53;5163038;28;20029;-75
2023/07/15 01:55:12;;;;;;;5.10;1.65;;;;;;;18.07;81.39;99963.38;5155031;28;20078;-75
2023/07/15 01:57:43;;;;;;;4.93;1.63;;;;;;;18.08;82.05;99959.75;5164830;28;20053;-75
2023/07/15 02:00:16;;;;;;;3.13;1.55;;;;;;;18.05;80.73;99966.16;5156053;28;20022;-72
2023/07/15 02:02:47;;;;;;;3.95;1.80;;;;;;;18.05;80.38;99960.00;5159078;28;20067;-75
2023/07/15 02:05:17;;;;;;;5.85;2.13;;;;;;;17.95;82.39;99953.69;5168935;28;20018;-75
2023/07/15 02:07:48;;;;;;;5.82;1.80;;;;;;;17.97;81.67;99951.81;5168673;28;20040;-71
2023/07/15 02:10:19;;;;;;;5.10;1.75;;;;;;;17.93;80.59;99951.19;5168476;28;20030;-75
2023/07/15 02:12:49;;;;;;;2.67;1.42;;;;;;;17.89;82.11;99951.53;5163319;28;20030;-73
2023/07/15 02:15:19;;;;;;;7.35;1.63;;;;;;;18.02;81.53;99944.38;5158098;28;20030;-75
2023/07/15 02:17:50;;;;;;;4.93;1.88;;;;;;;17.85;81.25;99942.16;5157816;28;20029;-75
2023/07/15 02:20:21;;;;;;;3.63;1.88;;;;;;;17.86;81.72;99941.19;5170813;28;20022;-75
2023/07/15 02:22:52;;;;;;;2.95;1.63;;;;;;;17.84;81.88;99946.59;5160044;28;20117;-75
2023/07/15 02:25:23;;;;;;;3.10;1.60;;;;;;;17.87;81.42;99940.22;5158190;28;20017;-75
2023/07/15 02:27:54;;;;;;;5.95;1.73;;;;;;;17.95;80.47;99943.13;5162125;28;20025;-75
2023/07/15 02:30:24;;;;;;;5.30;2.45;;;;;;;17.74;81.94;99939.47;5166203;28;20059;-75
2023/07/15 02:32:54;;;;;;;3.65;1.60;;;;;;;17.84;81.34;99935.19;5161429;28;20049;-75
2023/07/15 02:35:25;;;;;;;3.67;1.80;;;;;;;17.94;80.16;99931.72;5164886;28;20025;-75
2023/07/15 02:37:56;;;;;;;4.40;1.40;;;;;;;17.87;81.48;99945.53;5158550;28;20029;-71
2023/07/15 02:40:27;;;;;;;4.10;1.70;;;;;;;17.96;80.63;99934.22;5182717;28;20155;-75
2023/07/15 02:42:58;;;;;;;4.65;1.60;;;;;;;18.05;80.79;99928.25;5157383;28;20487;-75
2023/07/15 02:45:28;;;;;;;4.32;1.50;;;;;;;18.06;79.65;99919.38;5159317;28;20058;-75
2023/07/15 02:47:58;;;;;;;3.35;1.50;;;;;;;18.11;79.83;99922.50;5160246;28;20479;-75
2023/07/15 02:50:29;;;;;;;5.22;1.70;;;;;;;18.19;79.78;99914.81;5160303;28;20040;-75
2023/07/15 02:52:59;;;;;;;4.50;1.75;;;;;;;18.15;80.01;99911.56;5159721;28;20022;-75
2023/07/15 02:55:30;;;;;;;5.70;1.60;;;;;;;18.08;80.54;99907.72;5161798;28;20366;-75
2023/07/15 02:58:01;;;;;;;4.30;1.85;;;;;;;18.06;80.57;99903.50;5159180;28;20025;-75
2023/07/15 03:00:32;;;;;;;5.82;1.95;;;;;;;17.99;81.05;99903.13;5157592;28;20076;-75
2023/07/15 03:03:02;;;;;;;5.07;1.95;;;;;;;17.99;80.89;99903.13;5159377;28;20034;-75
2023/07/15 03:05:33;;;;;;;8.65;2.00;;;;;;;17.98;80.45;99909.38;5159602;28;20025;-75
2023/07/15 03:08:04;;;;;;;3.40;1.50;;;;;;;17.98;80.60;99896.16;5158974;28;20060;-75
2023/07/15 03:10:34;;;;;;;4.22;1.58;;;;;;;18.05;80.56;99904.47;5159400;28;20069;-75
2023/07/15 03:13:05;;;;;;;3.70;1.48;;;;;;;17.97;81.51;99901.56;5158529;28;20110;-75
2023/07/15 03:15:35;;;;;;;7.93;1.77;;;;;;;17.88;82.29;99900.47;5160367;28;20072;-75
2023/07/15 03:18:05;;;;;;;4.25;1.67;;;;;;;17.96;81.48;99897.22;5158362;28;20022;-75
2023/07/15 03:20:36;;;;;;;4.55;2.10;;;;;;;17.92;82.23;99903.69;5158487;28;20390;-75
2023/07/15 03:23:07;;;;;;;6.35;1.40;;;;;;;17.80;82.99;99897.56;5157455;28;20030;-75
2023/07/15 03:25:37;;;;;;;4.43;1.80;;;;;;;17.77;83.08;99902.22;5151315;28;20025;-75
2023/07/15 03:28:07;;;;;;;2.75;1.60;;;;;;;17.90;83.02;99908.25;5155833;28;20041;-75
2023/07/15 03:30:38;;;;;;;4.55;1.70;;;;;;;17.90;81.80;99902.97;5162745;28;20029;-74
2023/07/15 03:33:08;;;;;;;3.10;1.58;;;;;;;17.79;82.92;99892.41;5157826;28;20395;-75
2023/07/15 03:35:38;;;;;;;4.28;1.98;;;;;;;17.84;82.81;99900.81;5167460;28;20029;-75
2023/07/15 03:38:09;;;;;;;3.70;1.67;;;;;;;17.62;84.09;99900.75;5179158;28;20100;-75
2023/07/15 03:40:39;;;;;;;4.65;1.88;;;;;;;17.62;84.31;99896.28;5170276;28;20027;-75
2023/07/15 03:43:10;;;;;;;2.40;1.58;;;;;;;17.60;84.28;99900.00;5161708;28;20403;-75
2023/07/15 03:45:40;;;;;;;3.80;1.60;;;;;;;17.64;84.45;99898.84;5164926;28;20422;-75
2023/07/15 03:48:10;;;;;;;7.63;2.10;;;;;;;17.77;83.52;99886.34;5160076;28;20026;-75
2023/07/15 03:50:44;;;;;;;4.57;1.55;;;;;;;17.79;82.83;99880.00;5158590;28;20060;-75
2023/07/15 03:53:14;;;;;;;6.70;1.70;;;;;;;17.84;83.40;99887.59;5155535;28;20208;-74
2023/07/15 03:55:44;;;;;;;5.28;1.80;;;;;;;18.08;81.62;99885.69;5161161;28;20018;-75
2023/07/15 03:58:15;;;;;;;3.72;1.67;;;;;;;17.98;82.58;99879.47;5156010;28;20018;-74
2023/07/15 04:00:45;;;;;;;5.03;2.20;;;;;;;17.88;83.21;99894.31;5164294;28;20022;-74
2023/07/15 04:03:16;;;;;;;4.03;1.67;;;;;;;17.84;82.72;99883.13;5159667;28;20502;-72
2023/07/15 04:05:46;;;;;;;8.27;1.90;;;;;;;17.98;82.02;99892.69;5159746;28;20391;-75
2023/07/15 04:08:17;;;;;;;4.53;1.73;;;;;;;18.02;82.63;99880.91;5158691;28;20598;-73
2023/07/15 04:10:47;;;;;;;6.20;1.63;;;;;;;18.27;81.73;99885.97;5160691;28;20026;-75
2023/07/15 04:13:17;;;;;;;2.90;1.50;;;;;;;18.16;82.15;99889.44;5152702;28;20095;-73
2023/07/15 04:15:48;;;;;;;4.32;1.60;;;;;;;18.40;82.14;99881.44;5159059;28;20483;-72
2023/07/15 04:18:18;;;;;;;3.63;1.58;;;;;;;18.49;81.61;99886.84;5161560;28;20025;-75
2023/07/15 04:20:48;;;;;;;5.20;1.65;;;;;;;18.60;80.80;99878.06;5156228;28;20065;-73
2023/07/15 04:23:19;;;;;;;2.95;1.65;;;;;;;18.75;79.80;99881.16;5158697;28;20430;-75
2023/07/15 04:25:49;;;;;;;5.35;1.58;;;;;;;18.72;80.97;99892.97;5157729;28;20026;-75
2023/07/15 04:28:20;;;;;;;4.07;1.50;;;;;;;18.82;81.29;99882.38;5163212;28;20033;-75
2023/07/15 04:30:50;;;;;;;4.45;2.03;;;;;;;18.90;80.44;99887.88;5153595;28;20059;-75
2023/07/15 04:33:22;;;;;;;5.07;1.80;;;;;;;18.98;80.54;99885.47;5160535;28;20030;-75
2023/07/15 04:35:53;;;;;;;8.98;1.70;;;;;;;18.90;80.98;99887.88;5161050;28;20022;-75
2023/07/15 04:38:23;;;;;;;4.90;1.92;;;;;;;18.96;80.53;99882.09;5160277;28;20505;-75
2023/07/15 04:40:54;;;;;;;2.80;1.52;;;;;;;18.98;81.16;99887.28;5159116;28;20039;-75
2023/07/15 04:43:24;;;;;;;3.65;1.55;;;;;;;19.26;81.33;99889.41;5162146;28;20036;-75
2023/07/15 04:45:55;;;;;;;6.22;1.70;;;;;;;19.79;79.25;99883.97;5159827;28;20125;-75
2023/07/15 04:48:25;;;;;;;3.22;1.40;;;;;;;20.30;76.80;99873.44;5160487;28;20294;-75
2023/07/15 04:50:56;;;;;;;2.75;1.40;;;;;;;21.65;73.66;99872.63;5156203;28;20022;-76
2023/07/15 04:53:27;;;;;;;2.92;1.60;;;;;;;22.91;68.82;99870.16;5155078;28;20038;-76
2023/07/15 04:55:57;;;;;;;3.30;1.48;;;;;;;23.87;67.01;99873.81;5158692;28;20021;-76
2023/07/15 04:58:27;;;;;;;4.50;1.42;;;;;;;23.82;66.10;99872.56;5159799;28;20030;-76
2023/07/15 05:00:58;;;;;;;5.45;1.65;;;;;;;24.87;62.53;99879.28;5158931;28;20034;-76
2023/07/15 05:03:28;;;;;;;2.60;1.30;;;;;;;26.49;59.11;99874.72;5159357;28;20030;-76
2023/07/15 05:05:58;;;;;;;3.23;1.60;;;;;;;26.74;58.87;99873.66;5155876;28;20022;-75
2023/07/15 05:08:29;;;;;;;3.35;1.42;;;;;;;26.70;59.79;99876.84;5162996;28;20911;-76
2023/07/15 05:10:59;;;;;;;4.45;1.55;;;;;;;27.36;58.24;99869.97;5156328;28;20487;-76
2023/07/15 05:13:31;;;;;;;3.28;1.33;;;;;;;27.22;57.58;99868.88;5160626;28;20236;-76
2023/07/15 05:16:01;;;;;;;3.47;1.50;;;;;;;26.77;58.67;99870.63;5139135;28;20046;-76
2023/07/15 05:18:32;;;;;;;3.40;1.40;;;;;;;25.60;61.61;99888.31;5156901;28;20475;-76
2023/07/15 05:21:02;;;;;;;2.63;1.38;;;;;;;24.47;64.62;99888.91;5157557;28;20041;-76
2023/07/15 05:23:33;;;;;;;7.00;2.08;;;;;;;22.95;68.83;99889.34;5175797;28;20037;-76
2023/07/15 05:26:04;;;;;;;4.22;1.40;;;;;;;23.00;68.95;99881.75;5157131;28;20021;-75
2023/07/15 05:28:35;;;;;;;4.18;1.90;;;;;;;22.67;71.43;99890.34;5158363;28;20065;-76
2023/07/15 05:31:05;;;;;;;3.10;1.45;;;;;;;23.76;69.42;99881.19;5156738;28;20041;-76
2023/07/15 05:33:35;;;;;;;2.38;1.33;;;;;;;24.59;66.16;99884.16;5157222;28;20042;-76
2023/07/15 05:36:07;;;;;;;3.53;1.50;;;;;;;26.73;62.76;99879.16;5156630;28;20018;-76
2023/07/15 05:38:42;;;;;;;5.00;1.60;;;;;;;28.28;59.56;99868.69;5156391;28;20030;-76
2023/07/15 05:41:13;;;;;;;6.03;1.60;;;;;;;28.15;59.22;99868.50;5156430;28;20429;-76
2023/07/15 05:43:43;;;;;;;6.00;1.55;;;;;;;29.12;55.75;99874.47;5155137;28;20034;-75
2023/07/15 05:46:13;;;;;;;2.20;1.20;;;;;;;28.59;57.11;99880.16;5160970;28;20114;-75
2023/07/15 05:48:43;;;;;;;4.70;1.40;;;;;;;29.07;55.98;99877.72;5155087;28;20658;-76
2023/07/15 05:51:14;;;;;;;5.07;1.30;;;;;;;29.22;56.20;99888.47;5155308;28;20057;-76
2023/07/15 05:53:45;;;;;;;3.13;1.25;;;;;;;29.46;56.78;99880.03;5177225;28;20334;-77
2023/07/15 05:56:15;;;;;;;3.95;1.40;;;;;;;29.30;55.76;99888.34;5177540;28;20026;-76
2023/07/15 05:58:46;;;;;;;4.38;1.20;;;;;;;28.31;59.17;99878.28;5193844;28;20050;-76
2023/07/15 06:01:16;;;;;;;3.83;1.67;;;;;;;28.90;57.22;99887.03;5160044;28;20487;-76
2023/07/15 06:03:46;;;;;;;6.82;1.67;;;;;;;28.22;58.67;99885.56;5213088;28;20016;-75
2023/07/15 06:06:17;;;;;;;3.10;1.50;;;;;;;27.26;60.91;99891.66;5177424;28;20421;-75
2023/07/15 06:08:47;;;;;;;4.13;1.52;;;;;;;27.28;61.93;99889.66;5176732;28;20023;-75
2023/07/15 06:11:19;;;;;;;3.15;1.50;;;;;;;26.74;63.06;99885.19;5158818;28;20079;-76
2023/07/15 06:13:49;;;;;;;2.25;1.20;;;;;;;26.68;62.34;99885.03;5194716;28;20037;-74
2023/07/15 06:16:19;;;;;;;5.10;1.40;;;;;;;26.95;61.81;99884.59;5177471;28;20471;-74
2023/07/15 06:18:50;;;;;;;4.40;1.52;;;;;;;26.49;63.49;99880.09;5158128;28;20040;-74
2023/07/15 06:21:20;;;;;;;2.95;1.52;;;;;;;26.74;63.97;99885.19;5159186;28;20033;-75
2023/07/15 06:23:50;;;;;;;2.35;1.40;;;;;;;26.80;63.78;99879.13;5193485;28;20021;-76
2023/07/15 06:26:21;;;;;;;2.35;1.25;;;;;;;27.25;62.96;99873.91;5176662;28;20471;-75
2023/07/15 06:28:51;;;;;;;5.95;1.30;;;;;;;27.06;64.11;99874.31;5180818;28;20034;-75
2023/07/15 06:31:22;;;;;;;2.10;1.38;;;;;;;27.16;63.00;99876.81;5158468;28;20041;-75
2023/07/15 06:33:52;;;;;;;2.63;1.63;;;;;;;27.59;61.71;99871.66;5198639;28;20026;-75
2023/07/15 06:36:23;;;;;;;2.85;1.30;;;;;;;27.91;61.90;99859.81;5175342;28;20030;-75
2023/07/15 06:38:53;;;;;;;4.63;1.50;;;;;;;28.24;61.83;99862.03;5188376;28;20023;-76
2023/07/15 06:41:23;;;;;;;5.18;1.70;;;;;;;28.11;61.91;99861.00;5157481;28;20048;-75
2023/07/15 06:43:54;;;;;;;2.73;1.53;;;;;;;28.17;61.97;99865.63;5190400;28;20058;-75
2023/07/15 06:46:35;;;;;;;5.00;1.50;;;;;;;28.96;60.63;99861.22;5173515;28;20280;-72
2023/07/15 06:49:05;;;;;;;2.13;1.10;;;;;;;28.96;61.32;99858.53;5158459;28;20510;-76
2023/07/15 06:51:35;;;;;;;3.08;1.40;;;;;;;28.83;61.13;99858.31;5169279;28;20038;-76
2023/07/15 06:54:06;;;;;;;1.80;1.25;;;;;;;29.11;60.59;99856.63;5170673;28;20033;-75
2023/07/15 06:56:36;;;;;;;5.73;1.60;;;;;;;29.62;60.26;99851.00;5159827;28;20711;-72
2023/07/15 06:59:07;;;;;;;4.85;1.42;;;;;;;30.07;58.62;99855.16;5173519;28;20281;-76
2023/07/15 07:01:37;;;;;;;3.10;1.27;;;;;;;30.63;58.61;99848.69;5174556;28;20098;-76
2023/07/15 07:04:08;;;;;;;4.20;1.20;;;;;;;30.56;58.89;99856.72;5173268;28;20034;-76
2023/07/15 07:06:38;;;;;;;2.03;1.02;;;;;;;30.17;59.27;99855.63;5182628;28;20446;-76
2023/07/15 07:09:08;;;;;;;3.28;1.20;;;;;;;30.01;59.00;99850.50;5178771;28;20033;-76
2023/07/15 07:11:39;;;;;;;3.25;1.20;;;;;;;29.80;59.77;99847.84;5183296;28;20037;-76
2023/07/15 07:14:09;;;;;;;3.58;1.35;;;;;;;30.77;59.59;99843.16;5179398;28;20041;-75
2023/07/15 07:16:39;;;;;;;1.97;1.10;;;;;;;31.19;58.85;99841.06;5168983;28;20445;-73
2023/07/15 07:19:10;;;;;;;3.95;1.33;;;;;;;31.44;58.73;99839.47;5187446;28;20324;-76
2023/07/15 07:21:40;;;;;;;2.30;1.10;;;;;;;32.20;56.47;99828.06;5183575;28;20029;-74
2023/07/15 07:24:11;;;;;;;1.77;1.00;;;;;;;31.73;55.98;99836.38;5155311;28;20190;-76
2023/07/15 07:26:41;;;;;;;1.42;0.90;;;;;;;32.26;55.98;99827.25;5159614;28;20380;-75
2023/07/15 07:29:11;;;;;;;2.00;1.10;;;;;;;32.09;58.01;99834.09;5141867;28;20052;-76
2023/07/15 07:31:42;;;;;;;3.35;1.27;;;;;;;32.57;55.60;99824.63;5169972;28;20021;-76
2023/07/15 07:34:12;;;;;;;3.42;1.10;;;;;;;32.22;55.46;99828.69;5171916;28;20021;-76
2023/07/15 07:36:42;;;;;;;4.53;1.02;;;;;;;32.63;54.88;99840.06;5174430;28;20033;-76
2023/07/15 07:39:13;;;;;;;3.63;1.30;;;;;;;32.96;54.00;99838.91;5177152;28;20034;-76
2023/07/15 07:41:43;;;;;;;2.13;0.93;;;;;;;33.58;52.08;99843.56;5163626;28;20280;-75
2023/07/15 07:44:13;;;;;;;1.52;0.90;;;;;;;34.59;49.61;99829.53;5170990;28;20487;-72
2023/07/15 07:46:44;;;;;;;4.13;1.05;;;;;;;34.20;51.06;99847.06;5176040;28;20559;-76
2023/07/15 07:49:14;;;;;;;1.70;1.00;;;;;;;33.63;53.78;99838.34;5159322;28;20484;-75
2023/07/15 07:51:44;;;;;;;2.83;0.90;;;;;;;33.97;52.82;99824.31;5156592;28;20264;-76
2023/07/15 07:54:15;;;;;;;1.20;0.88;;;;;;;34.04;51.96;99822.34;5154146;28;20059;-75
2023/07/15 07:56:45;;;;;;;1.75;0.80;;;;;;;34.07;51.56;99824.63;5155799;28;20280;-75
2023/07/15 07:59:15;;;;;;;1.60;1.10;;;;;;;34.18;51.68;99823.91;5159503;28;20053;-74
2023/07/15 08:01:45;;;;;;;1.53;0.70;;;;;;;36.59;49.67;99816.66;5157053;28;20412;-74
2023/07/15 08:04:16;;;;;;;1.50;0.90;;;;;;;36.96;49.00;99820.72;5176345;28;20334;-75
2023/07/15 08:06:46;;;;;;;3.75;1.00;;;;;;;36.17;47.29;99815.94;5163521;28;20067;-73
2023/07/15 08:09:16;;;;;;;2.05;0.75;;;;;;;36.33;48.14;99815.22;5181145;28;20040;-76
2023/07/15 08:11:47;;;;;;;2.97;0.90;;;;;;;37.19;47.49;99816.84;5187780;28;20515;-74
2023/07/15 08:14:18;;;;;;;1.83;0.90;;;;;;;37.79;45.59;99819.84;5163584;28;20773;-74
2023/07/15 08:16:50;;;;;;;1.63;0.73;;;;;;;37.31;47.14;99825.81;5167067;28;20284;-73
2023/07/15 08:19:20;;;;;;;1.38;0.80;;;;;;;36.28;45.36;99817.03;5166456;28;20026;-76
2023/07/15 08:21:50;;;;;;;3.65;1.08;;;;;;;37.08;43.62;99819.63;5169748;28;20452;-73
2023/07/15 08:24:21;;;;;;;1.53;0.80;;;;;;;37.35;44.42;99820.66;5166979;28;20049;-76
2023/07/15 08:26:51;;;;;;;1.53;0.80;;;;;;;38.09;44.57;99831.28;5168587;28;20309;-73
2023/07/15 08:29:21;;;;;;;0.98;0.80;;;;;;;37.31;45.46;99828.53;5173756;28;20074;-76
2023/07/15 08:31:52;;;;;;;1.97;0.90;;;;;;;37.57;44.98;99835.31;5166264;28;20036;-76
2023/07/15 08:34:22;;;;;;;2.45;0.82;;;;;;;37.19;47.78;99821.47;5165667;28;20033;-77
2023/07/15 08:36:52;;;;;;;2.07;0.90;;;;;;;36.88;47.32;99821.09;5165281;28;20510;-73
2023/07/15 08:39:23;;;;;;;1.70;0.90;;;;;;;38.16;43.95;99812.81;5184702;28;20281;-76
2023/07/15 08:41:55;;;;;;;1.47;0.80;;;;;;;37.58;47.28;99815.13;5161209;28;20426;-72
2023/07/15 08:44:25;;;;;;;1.05;0.77;;;;;;;37.09;46.82;99815.81;5173976;28;20029;-76
2023/07/15 08:46:56;;;;;;;2.15;1.00;;;;;;;37.14;45.81;99812.38;5176300;28;20042;-73
2023/07/15 08:49:28;;;;;;;1.52;0.70;;;;;;;37.61;45.66;99817.38;5157019;28;20034;-76
2023/07/15 08:52:01;;;;;;;3.40;0.77;;;;;;;37.64;44.55;99809.53;5172306;28;20028;-76
2023/07/15 08:54:32;;;;;;;1.75;0.60;;;;;;;38.50;44.98;99798.88;5172015;28;20467;-72
2023/07/15 08:57:03;;;;;;;3.42;0.80;;;;;;;38.46;44.53;99800.44;5152258;28;20053;-75
2023/07/15 08:59:34;;;;;;;2.95;0.80;;;;;;;38.65;42.31;99801.81;5179542;28;20033;-75
2023/07/15 09:02:04;;;;;;;1.38;0.70;;;;;;;38.26;44.73;99797.41;5174614;28;21464;-76
2023/07/15 09:04:35;;;;;;;1.85;0.80;;;;;;;38.33;45.96;99792.63;5154808;28;20138;-76
2023/07/15 09:07:06;;;;;;;1.45;0.68;;;;;;;37.34;45.30;99803.50;5172030;28;20499;-76
2023/07/15 09:09:38;;;;;;;1.90;0.80;;;;;;;38.50;43.44;99798.03;5138822;28;20439;-76
2023/07/15 09:12:10;;;;;;;2.53;1.15;;;;;;;38.26;43.50;99802.06;5164497;28;20034;-75
2023/07/15 09:14:45;;;;;;;2.92;0.75;;;;;;;38.59;44.95;99805.53;5155478;28;20030;-76
2023/07/15 09:17:17;;;;;;;1.67;1.17;;;;;;;39.24;44.28;99803.63;5143193;28;20429;-74
2023/07/15 09:19:48;;;;;;;2.65;0.77;;;;;;;39.18;44.88;99806.53;5178094;28;20080;-73
2023/07/15 09:22:18;;;;;;;2.65;0.80;;;;;;;39.03;43.05;99812.69;5154560;28;20029;-77
2023/07/15 09:24:49;;;;;;;2.15;0.60;;;;;;;39.37;45.92;99819.63;5170140;28;20391;-73
2023/07/15 09:27:19;;;;;;;2.07;0.80;;;;;;;39.48;42.00;99814.00;5173721;28;20030;-76
2023/07/15 09:29:49;;;;;;;3.97;0.73;;;;;;;38.98;43.42;99812.59;5179839;28;20288;-74
2023/07/15 09:32:23;;;;;;;1.13;0.73;;;;;;;39.53;42.00;99803.09;5172795;28;20434;-76
2023/07/15 09:34:53;;;;;;;2.10;0.85;;;;;;;39.61;42.89;99799.06;5180049;28;20043;-74
2023/07/15 09:37:28;;;;;;;4.93;1.35;;;;;;;39.68;41.83;99795.03;5156395;28;20063;-75
2023/07/15 09:40:07;;;;;;;0.95;0.60;;;;;;;39.83;43.37;99795.16;5184233;28;20038;-76
2023/07/15 09:42:50;;;;;;;1.33;0.70;;;;;;;39.48;42.42;99808.53;5199352;28;20032;-75
2023/07/15 09:45:38;;;;;;;5.25;0.90;;;;;;;38.90;44.01;99812.22;5192590;28;20034;-75
2023/07/15 09:48:16;;;;;;;1.98;0.90;;;;;;;39.45;42.40;99814.53;5164782;28;20034;-76
2023/07/15 09:50:47;;;;;;;0.93;0.70;;;;;;;37.88;43.05;99815.66;5197926;28;20014;-73
2023/07/15 09:53:18;;;;;;;1.70;0.60;;;;;;;37.55;44.35;99826.53;5155163;28;20044;-74
2023/07/15 09:55:49;;;;;;;3.63;1.15;;;;;;;36.53;44.00;99815.72;5183459;28;20038;-74
2023/07/15 09:58:23;;;;;;;0.98;0.60;;;;;;;37.44;44.18;99813.75;5156770;28;20118;-75
2023/07/15 10:01:09;;;;;;;2.92;0.85;;;;;;;38.03;43.06;99813.16;5151005;28;20042;-74
2023/07/15 10:03:52;;;;;;;1.15;0.70;;;;;;;38.02;43.55;99811.50;5165701;28;20034;-75
2023/07/15 10:06:23;;;;;;;2.42;0.82;;;;;;;36.56;45.60;99808.97;5163010;28;20022;-75
2023/07/15 10:08:54;;;;;;;1.75;0.68;;;;;;;36.14;46.24;99816.44;5169000;28;20038;-74
2023/07/15 10:11:25;;;;;;;2.38;0.93;;;;;;;35.52;45.75;99818.91;5164474;28;20470;-75
2023/07/15 10:13:55;;;;;;;2.28;1.35;;;;;;;34.58;47.41;99827.88;5183507;28;20031;-72
2023/07/15 10:16:26;;;;;;;1.80;0.90;;;;;;;34.26;47.02;99838.03;5183598;28;20030;-75
2023/07/15 10:18:57;;;;;;;0.85;0.70;;;;;;;33.76;47.41;99835.53;5164073;28;20383;-75
2023/07/15 10:21:27;;;;;;;5.43;0.80;;;;;;;33.43;49.10;99838.47;5162036;28;20033;-75
2023/07/15 10:24:09;;;;;;;0.90;0.68;;;;;;;33.44;51.79;99847.41;5183891;28;20273;-73
2023/07/15 10:26:49;;;;;;;3.13;0.90;;;;;;;32.67;50.41;99865.66;5181713;28;20079;-75
2023/07/15 10:29:23;;;;;;;1.88;0.85;;;;;;;32.56;51.12;99874.41;5173110;28;20079;-73
2023/07/15 10:32:13;;;;;;;4.38;0.80;;;;;;;32.21;50.88;99885.72;5183185;28;20034;-71
2023/07/15 10:34:49;;;;;;;1.40;0.80;;;;;;;31.75;51.27;99893.81;5186705;28;20649;-72
2023/07/15 10:37:19;;;;;;;2.22;0.90;;;;;;;31.33;51.55;99910.28;5174281;28;20547;-74
2023/07/15 10:39:50;;;;;;;2.63;0.90;;;;;;;31.25;52.47;99905.09;5178801;28;20030;-74
2023/07/15 10:42:20;;;;;;;1.57;0.93;;;;;;;31.35;52.75;99908.22;5161982;28;20062;-75
2023/07/15 10:44:53;;;;;;;1.67;0.88;;;;;;;31.19;53.18;99910.47;5183161;28;20356;-73
2023/07/15 10:47:24;;;;;;;3.47;1.10;;;;;;;30.75;53.97;99903.78;5192382;28;20109;-73
2023/07/15 10:49:54;;;;;;;3.72;1.05;;;;;;;30.85;54.88;99910.47;5184140;28;20447;-75
2023/07/15 10:52:30;;;;;;;1.40;0.90;;;;;;;30.55;54.98;99927.91;5181857;28;20507;-74
2023/07/15 10:55:00;;;;;;;1.23;0.80;;;;;;;30.70;55.16;99933.22;5181807;28;20277;-73
2023/07/15 10:57:30;;;;;;;1.83;1.10;;;;;;;30.55;56.25;99940.56;5181921;28;20049;-75
2023/07/15 11:00:06;;;;;;;1.92;1.10;;;;;;;30.51;56.13;99947.38;5180785;28;20368;-74
2023/07/15 11:02:36;;;;;;;3.47;1.17;;;;;;;30.32;57.25;99965.09;5181782;28;20112;-74
2023/07/15 11:05:07;;;;;;;5.65;1.17;;;;;;;29.91;58.58;99963.22;5181484;28;20467;-74
2023/07/15 11:07:38;;;;;;;2.08;1.08;;;;;;;29.65;58.31;99973.72;5187943;28;20041;-73
2023/07/15 11:10:11;;;;;;;4.22;1.05;;;;;;;29.66;60.02;99981.63;5185726;28;20534;-75
2023/07/15 11:12:41;;;;;;;4.38;1.23;;;;;;;29.19;61.71;99999.22;5183935;28;20549;-74
2023/07/15 11:15:12;;;;;;;3.73;1.40;;;;;;;29.14;63.31;100004.34;5184454;28;20025;-75
2023/07/15 11:17:42;;;;;;;3.33;1.20;;;;;;;29.03;63.21;100002.13;5174143;28;20684;-74
2023/07/15 11:20:13;;;;;;;6.22;1.40;;;;;;;28.54;63.64;100014.38;5175691;28;20271;-74
2023/07/15 11:22:43;;;;;;;3.45;1.20;;;;;;;28.65;65.62;100011.22;5181250;28;20022;-75
2023/07/15 11:25:14;;;;;;;6.18;1.35;;;;;;;28.31;65.90;100016.25;5178707;28;20041;-74
2023/07/15 11:27:45;;;;;;;2.08;1.10;;;;;;;28.19;67.18;100022.19;5169500;28;20036;-74
2023/07/15 11:30:15;;;;;;;5.60;1.33;;;;;;;28.33;68.31;100019.59;5180994;28;20034;-73
2023/07/15 11:32:53;;;;;;;4.13;1.10;;;;;;;28.32;69.10;100006.34;5177892;28;20042;-72
2023/07/15 11:35:23;;;;;;;3.22;1.15;;;;;;;27.97;69.76;100013.09;5162675;28;20026;-74
2023/07/15 11:37:55;;;;;;;3.78;1.20;;;;;;;28.05;71.44;100006.84;5171877;28;20037;-75
2023/07/15 11:40:26;;;;;;;1.73;0.93;;;;;;;27.99;72.42;100007.56;5159334;28;20026;-74
2023/07/15 11:42:56;;;;;;;1.85;1.13;;;;;;;27.86;72.38;100012.69;5149643;28;20046;-74
2023/07/15 11:45:27;;;;;;;2.92;1.20;;;;;;;27.83;71.93;100008.53;5167569;28;20025;-73
2023/07/15 11:47:57;;;;;;;5.53;1.40;;;;;;;27.86;71.40;100008.16;5165127;28;20935;-75
2023/07/15 11:50:28;;;;;;;3.70;1.40;;;;;;;27.84;75.15;100010.19;5161525;28;20110;-75
2023/07/15 11:52:58;;;;;;;2.03;1.27;;;;;;;28.00;75.16;100004.72;5159943;28;20018;-76